首页
METAR-TAF:

METAR-TAF

机场 :

Cold Lake, 艾伯塔, 加拿大

纬度: 54-25N, 经度: 110-17W, 海拔: 541米

当前天气观测

该预报发布于18分钟前的17:00 UTC
风速9节,风向西转西北,有时为18节阵风
温度 18°C
湿度 37%
气压 1012 hPa
能見度: 24.1公里
少量云层高于6000英尺
少量云层高于25000英尺

METAR: CYOD 021700Z 29009G18KT 15SM FEW060 FEW250 18/03 A2989 RMK CU1CI1 CI TR SLP129

时间: 11:18 (17:18 UTC)

预报

该预报发布于5小时和48分钟前的11:30 UTC
预报有效从02日的 12点(UTC)到 03日的 12点(UTC)
风速3节,风向多变
能見度: 10公里
散云层高于8000英尺
散云层高于16000英尺
多云层高于22000英尺
短暂存在
从 02日的 12点(UTC)到 02日的 14点(UTC)
多云层高于8000英尺
多云层高于16000英尺
从 02日的 1700点(UTC)
风速12节,风向西
能見度: 10公里
散云层高于8000英尺
短暂存在
从 03日的 00点(UTC)到 03日的 04点(UTC)
多云层高于8000英尺
从 03日的 0400点(UTC)
风速3节,风向多变
能見度: 10公里
多云层高于8000英尺
阴天层高于14000英尺
短暂存在
从 03日的 04点(UTC)到 03日的 09点(UTC)
能見度: 10公里
小阵雨
从 03日的 0900点(UTC)
风速6节,风向南转南东
能見度: 10公里
散云层高于2000英尺
阴天层高于5000英尺
小阵雨
短暂存在
从 03日的 09点(UTC)到 03日的 12点(UTC)
能見度: 6.4公里
散云层高于1200英尺
阴天层高于2000英尺
小阵雨, 轻雾

TAF: CYOD 021130Z 0212/0312 VRB03KT P6SM SCT080 SCT160 BKN220 TEMPO 0212/0214 BKN080 BKN160 FM021700 26012KT P6SM SCT080 TEMPO 0300/0304 BKN080 FM030400 VRB03KT P6SM BKN080 OVC140 TEMPO 0304/0309 P6SM -SHRA FM030900 15006KT P6SM -SHRA SCT020 OVC050 TEMPO 0309/0312 4SM -SHRA BR SCT012 OVC020 RMK NXT FCST BY 021800Z

超过4000个机场的气象观测和天气预报(METAR&TAF报告)。

可查询的气象台以黄色和红色小点在地图上表示。

将鼠标移到小点上方,可查看气象台名称。

然后点击查看天气观测和预报。

如需切换地图:点击带黑十字的绿色按钮放大地图;点击带横线的绿色按钮缩小地图;或者点击绿色箭头查看邻近地区的地图。


METAR-TAF: